sensor_id;sensor_type;location;lat;lon;timestamp;P1;durP1;ratioP1;P2;durP2;ratioP2
15104;SDS011;7653;48.994;9.212;2022-09-09T00:04:32;2.83;;;1.30;;
15104;SDS011;7653;48.994;9.212;2022-09-09T00:09:25;3.67;;;1.17;;
15104;SDS011;7653;48.994;9.212;2022-09-09T00:14:59;3.17;;;1.33;;
15104;SDS011;7653;48.994;9.212;2022-09-09T00:20:32;2.17;;;1.00;;
15104;SDS011;7653;48.994;9.212;2022-09-09T00:23:00;1.87;;;1.10;;
15104;SDS011;7653;48.994;9.212;2022-09-09T00:25:48;3.03;;;1.10;;
15104;SDS011;7653;48.994;9.212;2022-09-09T00:28:19;1.93;;;1.03;;
15104;SDS011;7653;48.994;9.212;2022-09-09T00:30:47;3.23;;;1.27;;
15104;SDS011;7653;48.994;9.212;2022-09-09T00:33:15;2.43;;;1.20;;
15104;SDS011;7653;48.994;9.212;2022-09-09T00:35:49;2.77;;;1.20;;
15104;SDS011;7653;48.994;9.212;2022-09-09T00:43:35;2.13;;;1.00;;
15104;SDS011;7653;48.994;9.212;2022-09-09T00:56:56;2.13;;;1.20;;
15104;SDS011;7653;48.994;9.212;2022-09-09T00:59:31;3.00;;;1.30;;
15104;SDS011;7653;48.994;9.212;2022-09-09T01:02:13;2.87;;;1.10;;
15104;SDS011;7653;48.994;9.212;2022-09-09T01:04:52;2.70;;;1.20;;
15104;SDS011;7653;48.994;9.212;2022-09-09T01:07:19;1.47;;;1.13;;
15104;SDS011;7653;48.994;9.212;2022-09-09T01:09:52;4.10;;;1.40;;
15104;SDS011;7653;48.994;9.212;2022-09-09T01:12:42;2.60;;;1.20;;
15104;SDS011;7653;48.994;9.212;2022-09-09T01:15:17;3.87;;;1.40;;
15104;SDS011;7653;48.994;9.212;2022-09-09T01:27:53;1.97;;;1.10;;
15104;SDS011;7653;48.994;9.212;2022-09-09T01:30:21;3.23;;;1.37;;
15104;SDS011;7653;48.994;9.212;2022-09-09T01:38:21;2.70;;;1.10;;
15104;SDS011;7653;48.994;9.212;2022-09-09T01:40:48;2.93;;;1.60;;
15104;SDS011;7653;48.994;9.212;2022-09-09T01:43:17;2.90;;;1.60;;
15104;SDS011;7653;48.994;9.212;2022-09-09T01:45:46;4.90;;;1.17;;
15104;SDS011;7653;48.994;9.212;2022-09-09T01:48:16;2.30;;;1.30;;
15104;SDS011;7653;48.994;9.212;2022-09-09T01:50:43;5.83;;;1.60;;
15104;SDS011;7653;48.994;9.212;2022-09-09T01:53:09;2.00;;;1.20;;
15104;SDS011;7653;48.994;9.212;2022-09-09T01:55:38;2.20;;;1.37;;
15104;SDS011;7653;48.994;9.212;2022-09-09T02:00:52;5.00;;;1.60;;
15104;SDS011;7653;48.994;9.212;2022-09-09T02:03:39;2.97;;;1.30;;
15104;SDS011;7653;48.994;9.212;2022-09-09T02:09:00;4.70;;;1.60;;
15104;SDS011;7653;48.994;9.212;2022-09-09T02:11:29;2.63;;;1.23;;
15104;SDS011;7653;48.994;9.212;2022-09-09T02:13:57;5.30;;;1.40;;
15104;SDS011;7653;48.994;9.212;2022-09-09T02:16:37;4.83;;;1.43;;
15104;SDS011;7653;48.994;9.212;2022-09-09T02:21:37;2.73;;;1.23;;
15104;SDS011;7653;48.994;9.212;2022-09-09T02:24:04;2.50;;;1.60;;
15104;SDS011;7653;48.994;9.212;2022-09-09T02:26:34;4.77;;;1.60;;
15104;SDS011;7653;48.994;9.212;2022-09-09T02:29:07;3.40;;;1.47;;
15104;SDS011;7653;48.994;9.212;2022-09-09T02:31:37;3.47;;;1.50;;
15104;SDS011;7653;48.994;9.212;2022-09-09T02:34:04;3.33;;;1.60;;
15104;SDS011;7653;48.994;9.212;2022-09-09T02:36:33;4.07;;;1.70;;
15104;SDS011;7653;48.994;9.212;2022-09-09T02:39:00;3.77;;;1.60;;
15104;SDS011;7653;48.994;9.212;2022-09-09T02:41:31;3.83;;;1.50;;
15104;SDS011;7653;48.994;9.212;2022-09-09T02:43:59;2.03;;;1.70;;
15104;SDS011;7653;48.994;9.212;2022-09-09T02:46:40;6.80;;;1.60;;
15104;SDS011;7653;48.994;9.212;2022-09-09T02:49:25;3.27;;;1.77;;
15104;SDS011;7653;48.994;9.212;2022-09-09T02:52:04;4.67;;;1.57;;
15104;SDS011;7653;48.994;9.212;2022-09-09T02:54:32;3.33;;;1.70;;
15104;SDS011;7653;48.994;9.212;2022-09-09T02:59:32;4.93;;;1.57;;
15104;SDS011;7653;48.994;9.212;2022-09-09T03:01:58;2.53;;;1.63;;
15104;SDS011;7653;48.994;9.212;2022-09-09T03:04:24;4.03;;;1.40;;
15104;SDS011;7653;48.994;9.212;2022-09-09T03:06:50;5.00;;;1.77;;
15104;SDS011;7653;48.994;9.212;2022-09-09T03:09:15;3.07;;;1.50;;
15104;SDS011;7653;48.994;9.212;2022-09-09T03:11:41;3.80;;;1.37;;
15104;SDS011;7653;48.994;9.212;2022-09-09T03:14:07;3.67;;;1.60;;
15104;SDS011;7653;48.994;9.212;2022-09-09T03:16:33;2.83;;;1.87;;
15104;SDS011;7653;48.994;9.212;2022-09-09T03:18:59;3.00;;;1.50;;
15104;SDS011;7653;48.994;9.212;2022-09-09T03:21:25;2.07;;;1.40;;
15104;SDS011;7653;48.994;9.212;2022-09-09T03:23:51;5.27;;;1.80;;
15104;SDS011;7653;48.994;9.212;2022-09-09T03:26:17;3.20;;;1.50;;
15104;SDS011;7653;48.994;9.212;2022-09-09T03:28:42;1.93;;;1.30;;
15104;SDS011;7653;48.994;9.212;2022-09-09T03:31:09;4.20;;;1.47;;
15104;SDS011;7653;48.994;9.212;2022-09-09T03:33:36;2.80;;;1.67;;
15104;SDS011;7653;48.994;9.212;2022-09-09T03:36:03;3.43;;;1.70;;
15104;SDS011;7653;48.994;9.212;2022-09-09T03:38:29;2.43;;;1.43;;
15104;SDS011;7653;48.994;9.212;2022-09-09T03:40:56;2.83;;;1.47;;
15104;SDS011;7653;48.994;9.212;2022-09-09T03:43:25;2.73;;;1.67;;
15104;SDS011;7653;48.994;9.212;2022-09-09T03:45:51;2.60;;;1.60;;
15104;SDS011;7653;48.994;9.212;2022-09-09T03:48:18;2.87;;;1.80;;
15104;SDS011;7653;48.994;9.212;2022-09-09T03:50:44;3.93;;;1.40;;
15104;SDS011;7653;48.994;9.212;2022-09-09T03:53:14;4.07;;;1.53;;
15104;SDS011;7653;48.994;9.212;2022-09-09T03:55:48;3.93;;;1.40;;
15104;SDS011;7653;48.994;9.212;2022-09-09T03:58:18;4.23;;;1.50;;
15104;SDS011;7653;48.994;9.212;2022-09-09T04:00:52;3.17;;;1.20;;
15104;SDS011;7653;48.994;9.212;2022-09-09T04:03:21;2.73;;;1.47;;
15104;SDS011;7653;48.994;9.212;2022-09-09T04:05:49;3.13;;;1.37;;
15104;SDS011;7653;48.994;9.212;2022-09-09T04:08:18;5.77;;;1.50;;
15104;SDS011;7653;48.994;9.212;2022-09-09T04:10:45;3.37;;;1.40;;
15104;SDS011;7653;48.994;9.212;2022-09-09T04:13:11;1.77;;;1.30;;
15104;SDS011;7653;48.994;9.212;2022-09-09T04:15:39;2.43;;;1.60;;
15104;SDS011;7653;48.994;9.212;2022-09-09T04:18:04;4.27;;;1.60;;
15104;SDS011;7653;48.994;9.212;2022-09-09T04:20:31;5.23;;;1.70;;
15104;SDS011;7653;48.994;9.212;2022-09-09T04:22:57;4.07;;;1.40;;
15104;SDS011;7653;48.994;9.212;2022-09-09T04:25:24;3.73;;;1.47;;
15104;SDS011;7653;48.994;9.212;2022-09-09T04:27:54;2.73;;;1.50;;
15104;SDS011;7653;48.994;9.212;2022-09-09T04:30:20;4.53;;;1.40;;
15104;SDS011;7653;48.994;9.212;2022-09-09T04:32:46;1.30;;;1.20;;
15104;SDS011;7653;48.994;9.212;2022-09-09T04:35:12;2.13;;;1.27;;
15104;SDS011;7653;48.994;9.212;2022-09-09T04:37:37;2.57;;;1.30;;
15104;SDS011;7653;48.994;9.212;2022-09-09T04:40:03;4.07;;;1.40;;
15104;SDS011;7653;48.994;9.212;2022-09-09T04:42:35;2.70;;;1.40;;
15104;SDS011;7653;48.994;9.212;2022-09-09T04:45:01;3.27;;;1.50;;
15104;SDS011;7653;48.994;9.212;2022-09-09T04:47:28;3.03;;;1.63;;
15104;SDS011;7653;48.994;9.212;2022-09-09T04:49:53;4.20;;;1.50;;
15104;SDS011;7653;48.994;9.212;2022-09-09T04:52:19;3.60;;;1.37;;
15104;SDS011;7653;48.994;9.212;2022-09-09T04:54:45;3.43;;;1.50;;
15104;SDS011;7653;48.994;9.212;2022-09-09T04:57:11;2.60;;;1.43;;
15104;SDS011;7653;48.994;9.212;2022-09-09T04:59:37;3.10;;;1.43;;
15104;SDS011;7653;48.994;9.212;2022-09-09T05:02:04;3.40;;;1.60;;
15104;SDS011;7653;48.994;9.212;2022-09-09T05:04:30;4.80;;;1.50;;
15104;SDS011;7653;48.994;9.212;2022-09-09T05:06:55;3.27;;;1.80;;
15104;SDS011;7653;48.994;9.212;2022-09-09T05:09:21;5.50;;;1.60;;
15104;SDS011;7653;48.994;9.212;2022-09-09T05:11:47;3.60;;;1.60;;
15104;SDS011;7653;48.994;9.212;2022-09-09T05:14:14;7.83;;;1.80;;
15104;SDS011;7653;48.994;9.212;2022-09-09T05:16:40;7.93;;;2.00;;
15104;SDS011;7653;48.994;9.212;2022-09-09T05:19:09;2.63;;;1.40;;
15104;SDS011;7653;48.994;9.212;2022-09-09T05:21:36;3.80;;;1.60;;
15104;SDS011;7653;48.994;9.212;2022-09-09T05:24:02;5.03;;;2.00;;
15104;SDS011;7653;48.994;9.212;2022-09-09T05:26:29;2.53;;;1.50;;
15104;SDS011;7653;48.994;9.212;2022-09-09T05:28:56;4.13;;;1.40;;
15104;SDS011;7653;48.994;9.212;2022-09-09T05:31:24;3.83;;;1.47;;
15104;SDS011;7653;48.994;9.212;2022-09-09T05:33:53;2.20;;;1.40;;
15104;SDS011;7653;48.994;9.212;2022-09-09T05:36:20;2.23;;;1.70;;
15104;SDS011;7653;48.994;9.212;2022-09-09T05:38:46;4.83;;;1.67;;
15104;SDS011;7653;48.994;9.212;2022-09-09T05:41:13;2.73;;;1.40;;
15104;SDS011;7653;48.994;9.212;2022-09-09T05:43:43;5.60;;;1.53;;
15104;SDS011;7653;48.994;9.212;2022-09-09T05:46:10;3.77;;;1.57;;
15104;SDS011;7653;48.994;9.212;2022-09-09T05:48:38;6.73;;;2.10;;
15104;SDS011;7653;48.994;9.212;2022-09-09T05:51:05;5.97;;;1.80;;
15104;SDS011;7653;48.994;9.212;2022-09-09T05:53:33;7.57;;;1.83;;
15104;SDS011;7653;48.994;9.212;2022-09-09T05:56:00;6.33;;;1.90;;
15104;SDS011;7653;48.994;9.212;2022-09-09T05:58:28;5.43;;;1.77;;
15104;SDS011;7653;48.994;9.212;2022-09-09T06:03:34;2.00;;;1.50;;
15104;SDS011;7653;48.994;9.212;2022-09-09T06:06:02;4.83;;;1.70;;
15104;SDS011;7653;48.994;9.212;2022-09-09T06:08:33;5.33;;;1.70;;
15104;SDS011;7653;48.994;9.212;2022-09-09T06:11:06;3.83;;;1.37;;
15104;SDS011;7653;48.994;9.212;2022-09-09T06:13:33;6.40;;;1.63;;
15104;SDS011;7653;48.994;9.212;2022-09-09T06:16:02;2.30;;;1.60;;
15104;SDS011;7653;48.994;9.212;2022-09-09T06:18:29;7.97;;;1.80;;
15104;SDS011;7653;48.994;9.212;2022-09-09T06:23:31;6.70;;;2.17;;
15104;SDS011;7653;48.994;9.212;2022-09-09T06:28:35;7.50;;;2.10;;
15104;SDS011;7653;48.994;9.212;2022-09-09T06:31:02;6.53;;;2.10;;
15104;SDS011;7653;48.994;9.212;2022-09-09T06:33:34;6.07;;;1.80;;
15104;SDS011;7653;48.994;9.212;2022-09-09T06:36:01;8.63;;;1.90;;
15104;SDS011;7653;48.994;9.212;2022-09-09T06:38:28;8.57;;;1.90;;
15104;SDS011;7653;48.994;9.212;2022-09-09T06:40:55;7.93;;;1.90;;
15104;SDS011;7653;48.994;9.212;2022-09-09T06:43:23;7.10;;;1.57;;
15104;SDS011;7653;48.994;9.212;2022-09-09T06:45:56;5.20;;;1.33;;
15104;SDS011;7653;48.994;9.212;2022-09-09T06:48:22;3.23;;;1.37;;
15104;SDS011;7653;48.994;9.212;2022-09-09T06:50:48;6.27;;;1.50;;
15104;SDS011;7653;48.994;9.212;2022-09-09T06:53:18;3.97;;;1.50;;
15104;SDS011;7653;48.994;9.212;2022-09-09T06:55:48;4.83;;;1.70;;
15104;SDS011;7653;48.994;9.212;2022-09-09T06:58:17;7.90;;;1.87;;
15104;SDS011;7653;48.994;9.212;2022-09-09T07:00:43;5.80;;;1.90;;
15104;SDS011;7653;48.994;9.212;2022-09-09T07:03:09;6.27;;;1.80;;
15104;SDS011;7653;48.994;9.212;2022-09-09T07:05:35;5.60;;;1.63;;
15104;SDS011;7653;48.994;9.212;2022-09-09T07:08:02;5.10;;;1.70;;
15104;SDS011;7653;48.994;9.212;2022-09-09T07:10:27;3.90;;;1.80;;
15104;SDS011;7653;48.994;9.212;2022-09-09T07:12:53;5.27;;;1.40;;
15104;SDS011;7653;48.994;9.212;2022-09-09T07:15:19;2.63;;;1.50;;
15104;SDS011;7653;48.994;9.212;2022-09-09T07:17:46;5.20;;;1.30;;
15104;SDS011;7653;48.994;9.212;2022-09-09T07:20:13;2.53;;;1.60;;
15104;SDS011;7653;48.994;9.212;2022-09-09T07:22:39;2.77;;;1.67;;
15104;SDS011;7653;48.994;9.212;2022-09-09T07:25:06;3.87;;;1.50;;
15104;SDS011;7653;48.994;9.212;2022-09-09T07:27:32;2.87;;;1.47;;
15104;SDS011;7653;48.994;9.212;2022-09-09T07:29:58;3.73;;;1.50;;
15104;SDS011;7653;48.994;9.212;2022-09-09T07:32:24;5.50;;;1.57;;
15104;SDS011;7653;48.994;9.212;2022-09-09T07:34:50;3.57;;;1.40;;
15104;SDS011;7653;48.994;9.212;2022-09-09T07:37:16;6.57;;;1.67;;
15104;SDS011;7653;48.994;9.212;2022-09-09T07:39:42;3.97;;;1.47;;
15104;SDS011;7653;48.994;9.212;2022-09-09T07:42:08;2.90;;;1.20;;
15104;SDS011;7653;48.994;9.212;2022-09-09T07:44:36;3.20;;;1.33;;
15104;SDS011;7653;48.994;9.212;2022-09-09T07:47:04;4.20;;;1.17;;
15104;SDS011;7653;48.994;9.212;2022-09-09T07:49:30;2.97;;;1.20;;
15104;SDS011;7653;48.994;9.212;2022-09-09T07:51:56;4.37;;;1.20;;
15104;SDS011;7653;48.994;9.212;2022-09-09T07:54:22;2.10;;;0.90;;
15104;SDS011;7653;48.994;9.212;2022-09-09T07:56:51;2.90;;;1.00;;
15104;SDS011;7653;48.994;9.212;2022-09-09T07:59:17;5.70;;;1.20;;
15104;SDS011;7653;48.994;9.212;2022-09-09T08:01:47;5.27;;;1.00;;
15104;SDS011;7653;48.994;9.212;2022-09-09T08:04:16;3.63;;;1.00;;
15104;SDS011;7653;48.994;9.212;2022-09-09T08:06:44;3.93;;;0.93;;
15104;SDS011;7653;48.994;9.212;2022-09-09T08:09:14;3.23;;;0.90;;
15104;SDS011;7653;48.994;9.212;2022-09-09T08:11:40;2.00;;;0.80;;
15104;SDS011;7653;48.994;9.212;2022-09-09T08:14:07;3.47;;;0.93;;
15104;SDS011;7653;48.994;9.212;2022-09-09T08:16:35;2.97;;;0.93;;
15104;SDS011;7653;48.994;9.212;2022-09-09T08:19:03;3.43;;;1.20;;
15104;SDS011;7653;48.994;9.212;2022-09-09T08:21:30;3.10;;;1.03;;
15104;SDS011;7653;48.994;9.212;2022-09-09T08:23:58;3.10;;;1.03;;
15104;SDS011;7653;48.994;9.212;2022-09-09T08:26:26;3.00;;;0.90;;
15104;SDS011;7653;48.994;9.212;2022-09-09T08:28:54;3.60;;;0.90;;
15104;SDS011;7653;48.994;9.212;2022-09-09T08:31:29;3.00;;;0.90;;
15104;SDS011;7653;48.994;9.212;2022-09-09T08:33:56;2.37;;;0.87;;
15104;SDS011;7653;48.994;9.212;2022-09-09T08:36:28;3.93;;;0.90;;
15104;SDS011;7653;48.994;9.212;2022-09-09T08:38:57;5.57;;;1.20;;
15104;SDS011;7653;48.994;9.212;2022-09-09T08:44:10;3.10;;;0.90;;
15104;SDS011;7653;48.994;9.212;2022-09-09T08:47:15;4.57;;;1.10;;
15104;SDS011;7653;48.994;9.212;2022-09-09T08:57:55;4.03;;;1.00;;
15104;SDS011;7653;48.994;9.212;2022-09-09T09:00:42;2.10;;;1.00;;
15104;SDS011;7653;48.994;9.212;2022-09-09T09:12:07;4.10;;;1.07;;
15104;SDS011;7653;48.994;9.212;2022-09-09T09:17:54;3.40;;;0.90;;
15104;SDS011;7653;48.994;9.212;2022-09-09T09:20:53;2.93;;;1.10;;
15104;SDS011;7653;48.994;9.212;2022-09-09T09:23:54;2.10;;;0.80;;
15104;SDS011;7653;48.994;9.212;2022-09-09T09:27:06;3.23;;;0.70;;
15104;SDS011;7653;48.994;9.212;2022-09-09T09:30:40;3.43;;;1.00;;
15104;SDS011;7653;48.994;9.212;2022-09-09T09:36:41;3.50;;;1.00;;
15104;SDS011;7653;48.994;9.212;2022-09-09T09:39:28;3.77;;;0.90;;
15104;SDS011;7653;48.994;9.212;2022-09-09T09:42:21;2.87;;;0.70;;
15104;SDS011;7653;48.994;9.212;2022-09-09T09:44:47;3.93;;;0.90;;
15104;SDS011;7653;48.994;9.212;2022-09-09T09:47:15;1.63;;;0.63;;
15104;SDS011;7653;48.994;9.212;2022-09-09T09:49:54;2.67;;;0.70;;
15104;SDS011;7653;48.994;9.212;2022-09-09T09:52:22;0.87;;;0.43;;
15104;SDS011;7653;48.994;9.212;2022-09-09T09:54:50;1.37;;;0.77;;
15104;SDS011;7653;48.994;9.212;2022-09-09T09:57:17;3.23;;;0.70;;
15104;SDS011;7653;48.994;9.212;2022-09-09T09:59:43;2.17;;;0.73;;
15104;SDS011;7653;48.994;9.212;2022-09-09T10:04:43;2.07;;;1.00;;
15104;SDS011;7653;48.994;9.212;2022-09-09T10:07:20;2.80;;;0.77;;
15104;SDS011;7653;48.994;9.212;2022-09-09T10:09:55;1.70;;;0.90;;
15104;SDS011;7653;48.994;9.212;2022-09-09T10:21:05;0.80;;;0.53;;
15104;SDS011;7653;48.994;9.212;2022-09-09T10:26:32;3.53;;;0.90;;
15104;SDS011;7653;48.994;9.212;2022-09-09T10:31:52;3.43;;;0.80;;
15104;SDS011;7653;48.994;9.212;2022-09-09T10:37:23;2.50;;;0.70;;
15104;SDS011;7653;48.994;9.212;2022-09-09T10:40:04;3.40;;;1.10;;
15104;SDS011;7653;48.994;9.212;2022-09-09T10:56:51;4.33;;;1.20;;
15104;SDS011;7653;48.994;9.212;2022-09-09T10:59:23;1.97;;;0.90;;
15104;SDS011;7653;48.994;9.212;2022-09-09T11:01:56;4.43;;;1.10;;
15104;SDS011;7653;48.994;9.212;2022-09-09T11:04:45;2.67;;;0.80;;
15104;SDS011;7653;48.994;9.212;2022-09-09T11:07:39;2.43;;;1.10;;
15104;SDS011;7653;48.994;9.212;2022-09-09T11:13:13;4.77;;;0.87;;
15104;SDS011;7653;48.994;9.212;2022-09-09T11:15:45;5.50;;;1.43;;
15104;SDS011;7653;48.994;9.212;2022-09-09T11:18:16;2.43;;;0.80;;
15104;SDS011;7653;48.994;9.212;2022-09-09T11:20:45;2.00;;;0.60;;
15104;SDS011;7653;48.994;9.212;2022-09-09T11:23:27;3.30;;;0.70;;
15104;SDS011;7653;48.994;9.212;2022-09-09T11:26:10;2.30;;;1.00;;
15104;SDS011;7653;48.994;9.212;2022-09-09T11:28:51;1.33;;;0.80;;
15104;SDS011;7653;48.994;9.212;2022-09-09T11:44:45;0.43;;;0.37;;
15104;SDS011;7653;48.994;9.212;2022-09-09T11:47:22;1.50;;;0.30;;
15104;SDS011;7653;48.994;9.212;2022-09-09T11:49:54;1.77;;;0.70;;
15104;SDS011;7653;48.994;9.212;2022-09-09T11:53:03;2.13;;;0.60;;
15104;SDS011;7653;48.994;9.212;2022-09-09T11:55:39;1.20;;;0.60;;
15104;SDS011;7653;48.994;9.212;2022-09-09T11:58:05;0.93;;;0.30;;
15104;SDS011;7653;48.994;9.212;2022-09-09T12:00:38;2.63;;;0.53;;
15104;SDS011;7653;48.994;9.212;2022-09-09T12:06:12;0.73;;;0.40;;
15104;SDS011;7653;48.994;9.212;2022-09-09T12:09:05;0.90;;;0.30;;
15104;SDS011;7653;48.994;9.212;2022-09-09T12:11:41;1.20;;;0.60;;
15104;SDS011;7653;48.994;9.212;2022-09-09T12:14:20;1.33;;;0.47;;
15104;SDS011;7653;48.994;9.212;2022-09-09T12:16:47;0.27;;;0.27;;
15104;SDS011;7653;48.994;9.212;2022-09-09T12:24:27;0.73;;;0.43;;
15104;SDS011;7653;48.994;9.212;2022-09-09T12:27:20;0.67;;;0.30;;
15104;SDS011;7653;48.994;9.212;2022-09-09T12:30:44;1.33;;;0.40;;
15104;SDS011;7653;48.994;9.212;2022-09-09T12:32:46;0.57;;;0.30;;
15104;SDS011;7653;48.994;9.212;2022-09-09T12:35:19;1.27;;;0.40;;
15104;SDS011;7653;48.994;9.212;2022-09-09T12:42:54;1.00;;;0.50;;
15104;SDS011;7653;48.994;9.212;2022-09-09T12:45:31;0.37;;;0.20;;
15104;SDS011;7653;48.994;9.212;2022-09-09T12:48:08;0.47;;;0.33;;
15104;SDS011;7653;48.994;9.212;2022-09-09T12:50:55;0.83;;;0.30;;
15104;SDS011;7653;48.994;9.212;2022-09-09T12:53:35;2.07;;;0.60;;
15104;SDS011;7653;48.994;9.212;2022-09-09T12:56:20;0.50;;;0.23;;
15104;SDS011;7653;48.994;9.212;2022-09-09T13:02:32;0.73;;;0.40;;
15104;SDS011;7653;48.994;9.212;2022-09-09T13:05:05;1.30;;;0.50;;
15104;SDS011;7653;48.994;9.212;2022-09-09T13:07:37;1.50;;;0.40;;
15104;SDS011;7653;48.994;9.212;2022-09-09T13:10:03;0.63;;;0.40;;
15104;SDS011;7653;48.994;9.212;2022-09-09T13:12:29;1.03;;;0.33;;
15104;SDS011;7653;48.994;9.212;2022-09-09T13:14:57;2.43;;;0.60;;
15104;SDS011;7653;48.994;9.212;2022-09-09T13:17:26;2.17;;;0.50;;
15104;SDS011;7653;48.994;9.212;2022-09-09T13:20:03;0.33;;;0.20;;
15104;SDS011;7653;48.994;9.212;2022-09-09T13:22:35;1.23;;;0.30;;
15104;SDS011;7653;48.994;9.212;2022-09-09T13:27:58;1.93;;;0.60;;
15104;SDS011;7653;48.994;9.212;2022-09-09T13:33:04;1.23;;;0.40;;
15104;SDS011;7653;48.994;9.212;2022-09-09T13:35:48;1.13;;;0.50;;
15104;SDS011;7653;48.994;9.212;2022-09-09T13:38:16;1.17;;;0.30;;
15104;SDS011;7653;48.994;9.212;2022-09-09T13:40:56;2.00;;;0.30;;
15104;SDS011;7653;48.994;9.212;2022-09-09T13:43:24;1.03;;;0.57;;
15104;SDS011;7653;48.994;9.212;2022-09-09T13:45:55;0.87;;;0.37;;
15104;SDS011;7653;48.994;9.212;2022-09-09T13:48:23;0.40;;;0.20;;
15104;SDS011;7653;48.994;9.212;2022-09-09T13:50:59;0.97;;;0.40;;
15104;SDS011;7653;48.994;9.212;2022-09-09T13:53:29;1.80;;;0.40;;
15104;SDS011;7653;48.994;9.212;2022-09-09T13:55:55;1.17;;;0.47;;
15104;SDS011;7653;48.994;9.212;2022-09-09T13:58:24;1.80;;;0.70;;
15104;SDS011;7653;48.994;9.212;2022-09-09T14:00:51;2.22;;;0.60;;
15104;SDS011;7653;48.994;9.212;2022-09-09T14:03:18;0.87;;;0.40;;
15104;SDS011;7653;48.994;9.212;2022-09-09T14:05:44;0.67;;;0.37;;
15104;SDS011;7653;48.994;9.212;2022-09-09T14:08:12;4.38;;;0.55;;
15104;SDS011;7653;48.994;9.212;2022-09-09T14:10:45;1.20;;;0.38;;
15104;SDS011;7653;48.994;9.212;2022-09-09T14:13:11;1.38;;;0.57;;
15104;SDS011;7653;48.994;9.212;2022-09-09T14:15:37;1.80;;;0.55;;
15104;SDS011;7653;48.994;9.212;2022-09-09T14:18:03;1.20;;;0.57;;
15104;SDS011;7653;48.994;9.212;2022-09-09T14:20:28;1.75;;;0.52;;
15104;SDS011;7653;48.994;9.212;2022-09-09T14:22:55;1.25;;;0.35;;
15104;SDS011;7653;48.994;9.212;2022-09-09T14:25:22;1.02;;;0.40;;
15104;SDS011;7653;48.994;9.212;2022-09-09T14:27:48;1.73;;;0.50;;
15104;SDS011;7653;48.994;9.212;2022-09-09T14:30:14;1.58;;;0.50;;
15104;SDS011;7653;48.994;9.212;2022-09-09T14:32:39;1.83;;;0.52;;
15104;SDS011;7653;48.994;9.212;2022-09-09T14:35:05;0.85;;;0.38;;
15104;SDS011;7653;48.994;9.212;2022-09-09T14:37:32;1.75;;;0.50;;
15104;SDS011;7653;48.994;9.212;2022-09-09T14:39:57;1.17;;;0.25;;
15104;SDS011;7653;48.994;9.212;2022-09-09T14:42:23;1.58;;;0.73;;
15104;SDS011;7653;48.994;9.212;2022-09-09T14:44:49;2.08;;;0.52;;
15104;SDS011;7653;48.994;9.212;2022-09-09T14:47:14;0.73;;;0.32;;
15104;SDS011;7653;48.994;9.212;2022-09-09T14:49:43;1.13;;;0.40;;
15104;SDS011;7653;48.994;9.212;2022-09-09T14:52:10;1.80;;;0.50;;
15104;SDS011;7653;48.994;9.212;2022-09-09T14:54:36;2.37;;;0.63;;
15104;SDS011;7653;48.994;9.212;2022-09-09T14:57:02;2.37;;;0.60;;
15104;SDS011;7653;48.994;9.212;2022-09-09T14:59:28;0.77;;;0.50;;
15104;SDS011;7653;48.994;9.212;2022-09-09T15:01:53;0.67;;;0.37;;
15104;SDS011;7653;48.994;9.212;2022-09-09T15:04:19;1.40;;;0.63;;
15104;SDS011;7653;48.994;9.212;2022-09-09T15:06:45;1.60;;;0.50;;
15104;SDS011;7653;48.994;9.212;2022-09-09T15:09:13;1.07;;;0.50;;
15104;SDS011;7653;48.994;9.212;2022-09-09T15:11:39;1.50;;;0.57;;
15104;SDS011;7653;48.994;9.212;2022-09-09T15:14:06;1.20;;;0.50;;
15104;SDS011;7653;48.994;9.212;2022-09-09T15:16:33;0.63;;;0.33;;
15104;SDS011;7653;48.994;9.212;2022-09-09T15:19:00;1.20;;;0.27;;
15104;SDS011;7653;48.994;9.212;2022-09-09T15:21:28;2.67;;;0.60;;
15104;SDS011;7653;48.994;9.212;2022-09-09T15:23:58;1.30;;;0.67;;
15104;SDS011;7653;48.994;9.212;2022-09-09T15:26:25;2.33;;;0.60;;
15104;SDS011;7653;48.994;9.212;2022-09-09T15:28:52;0.47;;;0.40;;
15104;SDS011;7653;48.994;9.212;2022-09-09T15:33:48;3.10;;;0.20;;
15104;SDS011;7653;48.994;9.212;2022-09-09T15:36:35;0.80;;;0.33;;
15104;SDS011;7653;48.994;9.212;2022-09-09T15:39:11;0.33;;;0.33;;
15104;SDS011;7653;48.994;9.212;2022-09-09T15:41:40;0.73;;;0.47;;
15104;SDS011;7653;48.994;9.212;2022-09-09T15:44:07;1.50;;;0.50;;
15104;SDS011;7653;48.994;9.212;2022-09-09T15:46:35;0.33;;;0.30;;
15104;SDS011;7653;48.994;9.212;2022-09-09T15:49:10;1.33;;;0.50;;
15104;SDS011;7653;48.994;9.212;2022-09-09T15:51:38;1.90;;;0.40;;
15104;SDS011;7653;48.994;9.212;2022-09-09T15:54:05;1.60;;;0.47;;
15104;SDS011;7653;48.994;9.212;2022-09-09T15:56:31;1.30;;;0.50;;
15104;SDS011;7653;48.994;9.212;2022-09-09T15:58:58;1.20;;;0.50;;
15104;SDS011;7653;48.994;9.212;2022-09-09T16:01:25;1.17;;;0.50;;
15104;SDS011;7653;48.994;9.212;2022-09-09T16:03:52;0.43;;;0.40;;
15104;SDS011;7653;48.994;9.212;2022-09-09T16:06:19;1.60;;;0.50;;
15104;SDS011;7653;48.994;9.212;2022-09-09T16:08:46;1.60;;;0.40;;
15104;SDS011;7653;48.994;9.212;2022-09-09T16:11:19;0.40;;;0.40;;
15104;SDS011;7653;48.994;9.212;2022-09-09T16:13:47;3.27;;;0.63;;
15104;SDS011;7653;48.994;9.212;2022-09-09T16:16:15;1.60;;;0.50;;
15104;SDS011;7653;48.994;9.212;2022-09-09T16:18:43;1.30;;;0.40;;
15104;SDS011;7653;48.994;9.212;2022-09-09T16:21:15;0.77;;;0.40;;
15104;SDS011;7653;48.994;9.212;2022-09-09T16:23:43;2.07;;;0.50;;
15104;SDS011;7653;48.994;9.212;2022-09-09T16:26:12;3.23;;;0.70;;
15104;SDS011;7653;48.994;9.212;2022-09-09T16:28:40;2.23;;;0.50;;
15104;SDS011;7653;48.994;9.212;2022-09-09T16:31:07;1.03;;;0.60;;
15104;SDS011;7653;48.994;9.212;2022-09-09T16:33:34;1.67;;;0.80;;
15104;SDS011;7653;48.994;9.212;2022-09-09T16:36:05;3.97;;;1.00;;
15104;SDS011;7653;48.994;9.212;2022-09-09T16:38:31;0.87;;;0.50;;
15104;SDS011;7653;48.994;9.212;2022-09-09T16:40:59;0.83;;;0.37;;
15104;SDS011;7653;48.994;9.212;2022-09-09T16:43:25;1.10;;;0.37;;
15104;SDS011;7653;48.994;9.212;2022-09-09T16:45:51;1.10;;;0.50;;
15104;SDS011;7653;48.994;9.212;2022-09-09T16:48:17;0.77;;;0.40;;
15104;SDS011;7653;48.994;9.212;2022-09-09T16:50:43;2.83;;;0.30;;
15104;SDS011;7653;48.994;9.212;2022-09-09T16:53:09;0.37;;;0.37;;
15104;SDS011;7653;48.994;9.212;2022-09-09T16:55:37;0.30;;;0.20;;
15104;SDS011;7653;48.994;9.212;2022-09-09T16:58:05;0.30;;;0.30;;
15104;SDS011;7653;48.994;9.212;2022-09-09T17:00:30;0.63;;;0.30;;
15104;SDS011;7653;48.994;9.212;2022-09-09T17:02:56;0.80;;;0.10;;
15104;SDS011;7653;48.994;9.212;2022-09-09T17:05:21;0.87;;;0.17;;
15104;SDS011;7653;48.994;9.212;2022-09-09T17:07:48;1.20;;;0.50;;
15104;SDS011;7653;48.994;9.212;2022-09-09T17:10:14;0.70;;;0.27;;
15104;SDS011;7653;48.994;9.212;2022-09-09T17:12:40;0.83;;;0.10;;
15104;SDS011;7653;48.994;9.212;2022-09-09T17:15:06;0.30;;;0.10;;
15104;SDS011;7653;48.994;9.212;2022-09-09T17:17:32;1.27;;;0.10;;
15104;SDS011;7653;48.994;9.212;2022-09-09T17:19:58;0.73;;;0.20;;
15104;SDS011;7653;48.994;9.212;2022-09-09T17:22:23;1.07;;;0.40;;
15104;SDS011;7653;48.994;9.212;2022-09-09T17:24:51;2.27;;;0.40;;
15104;SDS011;7653;48.994;9.212;2022-09-09T17:27:17;1.83;;;0.40;;
15104;SDS011;7653;48.994;9.212;2022-09-09T17:29:42;1.93;;;0.50;;
15104;SDS011;7653;48.994;9.212;2022-09-09T17:32:08;1.43;;;0.40;;
15104;SDS011;7653;48.994;9.212;2022-09-09T17:34:34;2.07;;;0.50;;
15104;SDS011;7653;48.994;9.212;2022-09-09T17:37:00;1.70;;;0.43;;
15104;SDS011;7653;48.994;9.212;2022-09-09T17:39:26;1.77;;;0.40;;
15104;SDS011;7653;48.994;9.212;2022-09-09T17:41:52;0.40;;;0.40;;
15104;SDS011;7653;48.994;9.212;2022-09-09T17:44:19;0.77;;;0.40;;
15104;SDS011;7653;48.994;9.212;2022-09-09T17:46:45;1.93;;;0.60;;
15104;SDS011;7653;48.994;9.212;2022-09-09T17:49:12;1.03;;;0.50;;
15104;SDS011;7653;48.994;9.212;2022-09-09T17:51:40;1.80;;;0.50;;
15104;SDS011;7653;48.994;9.212;2022-09-09T17:54:08;1.37;;;0.50;;
15104;SDS011;7653;48.994;9.212;2022-09-09T17:56:42;0.80;;;0.67;;
15104;SDS011;7653;48.994;9.212;2022-09-09T17:59:09;1.33;;;0.63;;
15104;SDS011;7653;48.994;9.212;2022-09-09T18:01:37;0.63;;;0.40;;